createdAt,value
2022-12-17T00:02:27.491Z,100474.91
2022-12-17T00:05:12.938Z,100468.44
2022-12-17T00:07:58.482Z,100472.13
2022-12-17T00:10:43.954Z,100471.31
2022-12-17T00:13:41.865Z,100475.66
2022-12-17T00:16:27.631Z,100483.13
2022-12-17T00:19:13.278Z,100477.78
2022-12-17T00:21:58.934Z,100480.41
2022-12-17T00:24:44.464Z,100489.03
2022-12-17T00:27:30.019Z,100495.09
2022-12-17T00:30:15.691Z,100490.91
2022-12-17T00:33:01.227Z,100493.72
2022-12-17T00:35:46.595Z,100501.59
2022-12-17T00:38:36.455Z,100500.06
2022-12-17T00:41:22.070Z,100499.25
2022-12-17T00:44:07.512Z,100502.47
2022-12-17T00:46:54.710Z,100499.03
2022-12-17T00:49:41.396Z,100501.38
2022-12-17T00:52:26.991Z,100502.47
2022-12-17T00:55:12.584Z,100500.13
2022-12-17T00:57:57.977Z,100506.19
2022-12-17T01:00:43.660Z,100511.38
2022-12-17T01:03:31.142Z,100518.28
2022-12-17T01:06:20.966Z,100517.56
2022-12-17T01:09:06.538Z,100530.47
2022-12-17T01:11:52.125Z,100530.13
2022-12-17T01:14:37.995Z,100535.91
2022-12-17T01:17:23.634Z,100529.31
2022-12-17T01:20:09.300Z,100525.78
2022-12-17T01:22:56.470Z,100535.16
2022-12-17T01:25:42.177Z,100534.56
2022-12-17T01:28:27.579Z,100539.19
2022-12-17T01:31:15.902Z,100534.56
2022-12-17T01:34:01.665Z,100545.94
2022-12-17T01:36:47.100Z,100535.16
2022-12-17T01:39:32.487Z,100535.59
2022-12-17T01:42:18.176Z,100538.22
2022-12-17T01:45:12.991Z,100538.22
2022-12-17T01:48:22.349Z,100538.41
2022-12-17T01:51:10.237Z,100548.09
2022-12-17T01:54:00.774Z,100544.72
2022-12-17T01:56:46.574Z,100558.53
2022-12-17T01:59:33.919Z,100566.25
2022-12-17T02:02:20.152Z,100561.25
2022-12-17T02:05:05.626Z,100566.34
2022-12-17T02:08:03.064Z,100572.41
2022-12-17T02:11:02.841Z,100570.06
2022-12-17T02:13:54.555Z,100566.63
2022-12-17T02:16:54.152Z,100571.13
2022-12-17T02:19:58.093Z,100568.44
2022-12-17T02:23:03.868Z,100573.06
2022-12-17T02:26:11.245Z,100567.03
2022-12-17T02:29:02.164Z,100565.28
2022-12-17T02:31:49.813Z,100560.00
2022-12-17T02:34:35.467Z,100568.28
2022-12-17T02:37:20.894Z,100566.06
2022-12-17T02:40:06.313Z,100568.06
2022-12-17T02:42:52.941Z,100574.88
2022-12-17T02:45:38.861Z,100567.97
2022-12-17T02:48:26.746Z,100571.81
2022-12-17T02:51:12.098Z,100584.00
2022-12-17T02:54:08.715Z,100579.03
2022-12-17T02:56:54.354Z,100586.34
2022-12-17T02:59:39.933Z,100584.56
2022-12-17T03:02:31.637Z,100584.50
2022-12-17T03:05:43.420Z,100577.00
2022-12-17T03:08:22.318Z,100582.84
2022-12-17T03:11:07.928Z,100583.59
2022-12-17T03:13:53.643Z,100580.06
2022-12-17T03:16:39.394Z,100578.47
2022-12-17T03:19:25.196Z,100580.00
2022-12-17T03:22:10.808Z,100588.53
2022-12-17T03:24:56.570Z,100590.50
2022-12-17T03:27:42.295Z,100592.41
2022-12-17T03:30:31.067Z,100579.19
2022-12-17T03:33:20.194Z,100591.53
2022-12-17T03:36:05.796Z,100591.66
2022-12-17T03:38:51.384Z,100594.66
2022-12-17T03:41:37.033Z,100589.78
2022-12-17T03:44:22.882Z,100587.94
2022-12-17T03:47:08.465Z,100589.63
2022-12-17T03:49:54.192Z,100592.13
2022-12-17T03:52:39.724Z,100593.06
2022-12-17T03:55:25.405Z,100590.28
2022-12-17T03:58:11.125Z,100603.06
2022-12-17T04:00:56.585Z,100606.78
2022-12-17T04:03:42.303Z,100611.22
2022-12-17T04:06:27.633Z,100623.59
2022-12-17T04:09:13.327Z,100611.09
2022-12-17T04:11:59.131Z,100611.09
2022-12-17T04:14:44.733Z,100613.72
2022-12-17T04:17:30.458Z,100612.53
2022-12-17T04:20:15.966Z,100615.75
2022-12-17T04:23:01.570Z,100620.09
2022-12-17T04:25:47.211Z,100621.16
2022-12-17T04:28:32.745Z,100615.53
2022-12-17T04:31:18.510Z,100621.66
2022-12-17T04:34:03.984Z,100628.94
2022-12-17T04:36:49.389Z,100624.09
2022-12-17T04:39:35.627Z,100624.91
2022-12-17T04:42:21.325Z,100629.97
2022-12-17T04:45:06.969Z,100635.25
2022-12-17T04:47:52.507Z,100640.13
2022-12-17T04:50:38.251Z,100650.47
2022-12-17T04:53:25.417Z,100643.72
2022-12-17T04:56:13.547Z,100646.53
2022-12-17T04:58:59.056Z,100647.16
2022-12-17T05:01:44.962Z,100655.34
2022-12-17T05:04:30.347Z,100660.50
2022-12-17T05:07:16.207Z,100653.03
2022-12-17T05:10:01.991Z,100651.94
2022-12-17T05:12:47.432Z,100658.38
2022-12-17T05:15:33.227Z,100661.56
2022-12-17T05:18:26.316Z,100663.00
2022-12-17T05:21:12.103Z,100651.63
2022-12-17T05:23:57.506Z,100661.38
2022-12-17T05:26:44.895Z,100662.13
2022-12-17T05:29:30.746Z,100660.09
2022-12-17T05:32:16.933Z,100661.72
2022-12-17T05:35:02.357Z,100674.16
2022-12-17T05:37:48.028Z,100669.41
2022-12-17T05:40:34.288Z,100681.94
2022-12-17T05:43:24.415Z,100684.06
2022-12-17T05:46:10.214Z,100688.31
2022-12-17T05:48:55.857Z,100689.28
2022-12-17T05:51:41.433Z,100693.81
2022-12-17T05:54:26.993Z,100701.47
2022-12-17T05:57:13.330Z,100707.53
2022-12-17T05:59:58.810Z,100714.88
2022-12-17T06:02:44.757Z,100716.38
2022-12-17T06:05:30.708Z,100721.09
2022-12-17T06:08:26.969Z,100727.31
2022-12-17T06:11:13.120Z,100723.81
2022-12-17T06:13:58.750Z,100732.66
2022-12-17T06:16:44.547Z,100742.16
2022-12-17T06:19:30.245Z,100721.75
2022-12-17T06:22:15.605Z,100735.19
2022-12-17T06:25:01.171Z,100735.75
2022-12-17T06:27:46.707Z,100744.66
2022-12-17T06:30:32.471Z,100753.69
2022-12-17T06:33:25.249Z,100765.47
2022-12-17T06:36:18.084Z,100756.78
2022-12-17T06:39:07.311Z,100764.22
2022-12-17T06:41:52.815Z,100767.94
2022-12-17T06:44:47.473Z,100759.81
2022-12-17T06:47:32.913Z,100765.72
2022-12-17T06:50:18.553Z,100762.59
2022-12-17T06:53:04.086Z,100777.03
2022-12-17T06:55:49.789Z,100772.75
2022-12-17T06:58:35.610Z,100782.31
2022-12-17T07:01:21.497Z,100788.63
2022-12-17T07:04:07.167Z,100777.84
2022-12-17T07:06:52.664Z,100780.16
2022-12-17T07:09:38.133Z,100776.69
2022-12-17T07:12:23.773Z,100788.09
2022-12-17T07:15:09.716Z,100779.84
2022-12-17T07:17:55.411Z,100792.81
2022-12-17T07:20:41.205Z,100787.06
2022-12-17T07:23:27.424Z,100800.47
2022-12-17T07:26:12.983Z,100801.72
2022-12-17T07:28:58.387Z,100811.97
2022-12-17T07:31:44.300Z,100813.09
2022-12-17T07:34:29.691Z,100817.63
2022-12-17T07:37:20.320Z,100830.84
2022-12-17T07:40:05.982Z,100834.09
2022-12-17T07:42:51.527Z,100835.47
2022-12-17T07:45:37.482Z,100835.47
2022-12-17T07:48:23.017Z,100843.19
2022-12-17T07:51:09.147Z,100848.78
2022-12-17T07:53:54.837Z,100841.34
2022-12-17T07:56:40.451Z,100847.25
2022-12-17T07:59:26.325Z,100851.94
2022-12-17T08:02:12.355Z,100848.31
2022-12-17T08:04:58.424Z,100852.13
2022-12-17T08:07:44.826Z,100844.63
2022-12-17T08:10:30.792Z,100846.38
2022-12-17T08:13:19.328Z,100848.13
2022-12-17T08:16:05.699Z,100847.47
2022-12-17T08:18:51.464Z,100848.47
2022-12-17T08:21:37.278Z,100853.69
2022-12-17T08:24:23.092Z,100858.06
2022-12-17T08:27:08.588Z,100854.69
2022-12-17T08:29:54.090Z,100856.38
2022-12-17T08:32:39.851Z,100855.66
2022-12-17T08:35:25.366Z,100859.47
2022-12-17T08:38:21.858Z,100860.66
2022-12-17T08:41:08.357Z,100862.53
2022-12-17T08:43:54.003Z,100865.03
2022-12-17T08:46:39.380Z,100869.41
2022-12-17T08:49:24.777Z,100871.91
2022-12-17T08:52:10.348Z,100862.63
2022-12-17T08:54:57.658Z,100872.13
2022-12-17T08:57:43.448Z,100867.81
2022-12-17T09:00:29.791Z,100875.44
2022-12-17T09:03:19.542Z,100877.75
2022-12-17T09:06:05.857Z,100870.97
2022-12-17T09:08:51.737Z,100876.94
2022-12-17T09:11:37.249Z,100880.16
2022-12-17T09:14:22.981Z,100880.16
2022-12-17T09:17:09.250Z,100883.59
2022-12-17T09:19:54.932Z,100877.75
2022-12-17T09:22:40.747Z,100879.56
2022-12-17T09:25:26.912Z,100878.69
2022-12-17T09:28:12.567Z,100871.66
2022-12-17T09:30:58.381Z,100874.09
2022-12-17T09:33:44.279Z,100873.00
2022-12-17T09:36:31.184Z,100869.97
2022-12-17T09:39:17.324Z,100873.28
2022-12-17T09:42:20.106Z,100868.88
2022-12-17T09:45:17.287Z,100866.59
2022-12-17T09:48:34.939Z,100874.75
2022-12-17T09:51:20.717Z,100875.56
2022-12-17T09:54:09.918Z,100876.88
2022-12-17T09:56:57.104Z,100883.03
2022-12-17T09:59:53.202Z,100882.13
2022-12-17T10:02:45.553Z,100890.78
2022-12-17T10:05:43.724Z,100888.00
2022-12-17T10:08:33.585Z,100890.50
2022-12-17T10:11:40.998Z,100890.63
2022-12-17T10:14:40.992Z,100892.31
2022-12-17T10:17:41.058Z,100895.97
2022-12-17T10:20:50.903Z,100896.34
2022-12-17T10:23:51.058Z,100899.84
2022-12-17T10:26:38.724Z,100894.78
2022-12-17T10:29:29.858Z,100894.84
2022-12-17T10:32:18.668Z,100903.13
2022-12-17T10:35:05.881Z,100890.31
2022-12-17T10:37:53.444Z,100900.56
2022-12-17T10:40:45.245Z,100888.06
2022-12-17T10:43:48.891Z,100902.69
2022-12-17T10:46:47.428Z,100898.50
2022-12-17T10:49:41.992Z,100891.78
2022-12-17T10:52:49.900Z,100893.75
2022-12-17T10:55:49.184Z,100886.16
2022-12-17T10:58:42.807Z,100900.19
2022-12-17T11:01:41.135Z,100894.25
2022-12-17T11:04:55.937Z,100892.34
2022-12-17T11:07:52.615Z,100888.16
2022-12-17T11:10:42.001Z,100885.72
2022-12-17T11:13:34.611Z,100887.50
2022-12-17T11:16:30.109Z,100886.66
2022-12-17T11:19:53.687Z,100887.41
2022-12-17T11:23:11.955Z,100889.34
2022-12-17T11:26:21.491Z,100879.13
2022-12-17T11:29:07.032Z,100887.44
2022-12-17T11:32:17.647Z,100883.53
2022-12-17T11:35:28.771Z,100886.16
2022-12-17T11:38:28.528Z,100886.91
2022-12-17T11:41:20.023Z,100881.56
2022-12-17T11:44:44.208Z,100885.69
2022-12-17T11:47:59.824Z,100893.38
2022-12-17T11:51:08.414Z,100893.19
2022-12-17T11:54:15.758Z,100894.78
2022-12-17T11:57:04.764Z,100908.41
2022-12-17T12:00:13.367Z,100913.81
2022-12-17T12:03:36.577Z,100903.94
2022-12-17T12:06:31.191Z,100911.91
2022-12-17T12:09:23.492Z,100904.56
2022-12-17T12:12:15.228Z,100906.41
2022-12-17T12:15:25.491Z,100904.78
2022-12-17T12:18:57.043Z,100902.44
2022-12-17T12:22:19.877Z,100906.97
2022-12-17T12:25:29.838Z,100905.59
2022-12-17T12:28:34.139Z,100897.44
2022-12-17T12:31:24.115Z,100903.31
2022-12-17T12:34:13.627Z,100904.03
2022-12-17T12:37:00.376Z,100899.22
2022-12-17T12:39:59.340Z,100909.41
2022-12-17T12:42:50.648Z,100907.88
2022-12-17T12:45:56.626Z,100910.72
2022-12-17T12:49:01.778Z,100910.63
2022-12-17T12:51:49.843Z,100914.47
2022-12-17T12:55:01.317Z,100914.09
2022-12-17T12:57:52.670Z,100909.56
2022-12-17T13:00:47.090Z,100915.19
2022-12-17T13:03:52.523Z,100913.16
2022-12-17T13:06:43.001Z,100919.22
2022-12-17T13:09:16.083Z,100925.22
2022-12-17T13:11:51.059Z,100925.28
2022-12-17T13:15:02.491Z,100928.72
2022-12-17T13:17:35.912Z,100926.97
2022-12-17T13:20:23.190Z,100933.78
2022-12-17T13:23:05.337Z,100935.28
2022-12-17T13:25:32.447Z,100935.28
2022-12-17T13:27:59.456Z,100930.91
2022-12-17T13:30:39.009Z,100937.28
2022-12-17T13:33:43.521Z,100947.94
2022-12-17T13:36:31.730Z,100946.59
2022-12-17T13:39:20.242Z,100947.13
2022-12-17T13:41:47.171Z,100947.75
2022-12-17T13:44:29.979Z,100952.69
2022-12-17T13:46:56.769Z,100943.59
2022-12-17T13:49:32.920Z,100953.50
2022-12-17T13:52:11.440Z,100963.44
2022-12-17T13:54:39.016Z,100964.06
2022-12-17T13:57:10.917Z,100964.88
2022-12-17T13:59:37.850Z,100967.59
2022-12-17T14:02:04.951Z,100967.69
2022-12-17T14:04:32.686Z,100963.13
2022-12-17T14:07:03.244Z,100967.19
2022-12-17T14:09:36.183Z,100979.75
2022-12-17T14:12:25.037Z,100978.78
2022-12-17T14:14:59.752Z,100976.31
2022-12-17T14:17:28.993Z,100983.03
2022-12-17T14:20:20.983Z,100981.09
2022-12-17T14:22:51.716Z,100984.47
2022-12-17T14:25:35.147Z,100996.06
2022-12-17T14:28:05.725Z,100995.56
2022-12-17T14:31:24.526Z,100997.56
2022-12-17T14:33:35.223Z,100997.06
2022-12-17T14:36:08.169Z,101004.25
2022-12-17T14:38:39.053Z,101015.72
2022-12-17T14:41:30.653Z,101016.09
2022-12-17T14:43:59.350Z,101013.19
2022-12-17T14:46:28.107Z,101011.28
2022-12-17T14:49:02.706Z,101017.00
2022-12-17T14:51:34.630Z,101020.97
2022-12-17T14:54:17.214Z,101022.31
2022-12-17T14:56:44.960Z,101026.53
2022-12-17T14:59:33.820Z,101032.25
2022-12-17T15:02:05.163Z,101036.16
2022-12-17T15:04:32.863Z,101036.84
2022-12-17T15:06:59.987Z,101039.84
2022-12-17T15:09:27.136Z,101040.44
2022-12-17T15:11:54.077Z,101052.34
2022-12-17T15:14:21.375Z,101054.88
2022-12-17T15:16:48.603Z,101055.59
2022-12-17T15:19:16.059Z,101065.63
2022-12-17T15:21:43.211Z,101058.56
2022-12-17T15:24:16.437Z,101058.22
2022-12-17T15:26:43.620Z,101061.56
2022-12-17T15:29:10.711Z,101072.03
2022-12-17T15:31:37.663Z,101064.81
2022-12-17T15:34:05.116Z,101069.28
2022-12-17T15:36:32.815Z,101065.28
2022-12-17T15:38:59.961Z,101068.16
2022-12-17T15:41:45.311Z,101059.84
2022-12-17T15:44:13.201Z,101064.31
2022-12-17T15:46:40.170Z,101058.56
2022-12-17T15:49:07.389Z,101068.28
2022-12-17T15:51:34.319Z,101065.44
2022-12-17T15:54:01.393Z,101071.03
2022-12-17T15:56:29.574Z,101071.34
2022-12-17T15:59:01.809Z,101073.31
2022-12-17T16:01:31.924Z,101071.34
2022-12-17T16:03:59.542Z,101076.16
2022-12-17T16:06:26.607Z,101077.44
2022-12-17T16:08:53.592Z,101085.25
2022-12-17T16:11:20.629Z,101092.22
2022-12-17T16:13:47.704Z,101092.50
2022-12-17T16:16:14.807Z,101098.97
2022-12-17T16:18:42.055Z,101107.88
2022-12-17T16:21:09.967Z,101108.22
2022-12-17T16:23:37.254Z,101113.78
2022-12-17T16:26:06.560Z,101127.44
2022-12-17T16:28:34.722Z,101121.97
2022-12-17T16:31:07.946Z,101123.69
2022-12-17T16:33:37.021Z,101123.94
2022-12-17T16:36:05.751Z,101120.19
2022-12-17T16:38:33.004Z,101133.50
2022-12-17T16:41:03.008Z,101135.59
2022-12-17T16:43:34.259Z,101135.16
2022-12-17T16:46:03.148Z,101136.31
2022-12-17T16:48:37.431Z,101141.28
2022-12-17T16:51:19.044Z,101152.94
2022-12-17T16:53:51.196Z,101154.47
2022-12-17T16:56:21.864Z,101164.00
2022-12-17T16:58:49.629Z,101159.09
2022-12-17T17:01:21.265Z,101162.34
2022-12-17T17:03:48.825Z,101159.78
2022-12-17T17:06:17.434Z,101163.09
2022-12-17T17:08:45.179Z,101171.72
2022-12-17T17:11:21.572Z,101169.81
2022-12-17T17:13:49.835Z,101176.69
2022-12-17T17:16:18.292Z,101170.72
2022-12-17T17:18:45.665Z,101174.16
2022-12-17T17:21:19.739Z,101182.66
2022-12-17T17:23:47.973Z,101186.41
2022-12-17T17:26:16.262Z,101190.81
2022-12-17T17:28:45.351Z,101183.50
2022-12-17T17:31:13.695Z,101183.06
2022-12-17T17:33:46.804Z,101185.16
2022-12-17T17:36:14.949Z,101184.59
2022-12-17T17:38:42.247Z,101190.88
2022-12-17T17:41:11.792Z,101186.31
2022-12-17T17:43:39.235Z,101193.94
2022-12-17T17:46:16.678Z,101193.28
2022-12-17T17:48:45.853Z,101204.66
2022-12-17T17:51:15.112Z,101204.34
2022-12-17T17:53:42.877Z,101205.84
2022-12-17T17:56:16.793Z,101205.59
2022-12-17T17:58:45.440Z,101211.13
2022-12-17T18:01:14.277Z,101211.34
2022-12-17T18:03:41.534Z,101208.09
2022-12-17T18:06:10.016Z,101214.72
2022-12-17T18:08:38.225Z,101209.38
2022-12-17T18:11:07.436Z,101214.88
2022-12-17T18:13:56.637Z,101220.28
2022-12-17T18:16:36.081Z,101225.97
2022-12-17T18:19:07.561Z,101223.69
2022-12-17T18:21:39.801Z,101228.22
2022-12-17T18:24:11.224Z,101237.75
2022-12-17T18:26:44.807Z,101241.81
2022-12-17T18:29:15.215Z,101241.34
2022-12-17T18:31:48.483Z,101240.19
2022-12-17T18:34:21.061Z,101239.81
2022-12-17T18:36:48.503Z,101241.66
2022-12-17T18:39:18.660Z,101241.09
2022-12-17T18:42:05.724Z,101243.06
2022-12-17T18:44:34.209Z,101233.75
2022-12-17T18:47:01.181Z,101236.22
2022-12-17T18:49:28.303Z,101239.75
2022-12-17T18:51:55.669Z,101248.97
2022-12-17T18:54:27.829Z,101250.72
2022-12-17T18:57:01.853Z,101252.56
2022-12-17T18:59:30.561Z,101256.13
2022-12-17T19:01:58.276Z,101256.78
2022-12-17T19:04:25.937Z,101260.13
2022-12-17T19:06:54.412Z,101262.34
2022-12-17T19:09:28.275Z,101269.09
2022-12-17T19:11:55.582Z,101265.03
2022-12-17T19:14:23.680Z,101269.91
2022-12-17T19:16:52.097Z,101262.81
2022-12-17T19:19:20.105Z,101267.03
2022-12-17T19:21:49.441Z,101267.50
2022-12-17T19:24:18.299Z,101271.41
2022-12-17T19:26:45.950Z,101276.50
2022-12-17T19:29:18.043Z,101268.88
2022-12-17T19:31:47.415Z,101259.69
2022-12-17T19:34:16.839Z,101264.78
2022-12-17T19:36:44.052Z,101269.75
2022-12-17T19:39:20.381Z,101273.00
2022-12-17T19:41:47.602Z,101273.78
2022-12-17T19:44:16.116Z,101278.06
2022-12-17T19:46:43.774Z,101274.84
2022-12-17T19:49:16.094Z,101278.50
2022-12-17T19:51:44.761Z,101281.13
2022-12-17T19:54:14.035Z,101282.22
2022-12-17T19:56:43.366Z,101290.94
2022-12-17T19:59:11.274Z,101290.28
2022-12-17T20:01:44.613Z,101296.34
2022-12-17T20:04:13.418Z,101291.38
2022-12-17T20:06:41.937Z,101288.13
2022-12-17T20:09:08.963Z,101286.78
2022-12-17T20:11:36.423Z,101287.00
2022-12-17T20:14:16.626Z,101299.91
2022-12-17T20:16:47.069Z,101290.03
2022-12-17T20:19:16.666Z,101296.09
2022-12-17T20:21:43.737Z,101306.59
2022-12-17T20:24:12.080Z,101310.91
2022-12-17T20:26:39.955Z,101312.78
2022-12-17T20:29:07.700Z,101316.88
2022-12-17T20:31:35.825Z,101322.25
2022-12-17T20:34:04.537Z,101315.56
2022-12-17T20:36:36.806Z,101322.28
2022-12-17T20:39:06.771Z,101323.34
2022-12-17T20:41:37.837Z,101330.03
2022-12-17T20:44:12.268Z,101331.06
2022-12-17T20:46:43.248Z,101330.31
2022-12-17T20:49:13.474Z,101328.13
2022-12-17T20:51:41.040Z,101341.97
2022-12-17T20:54:08.942Z,101343.97
2022-12-17T20:56:37.599Z,101338.91
2022-12-17T20:59:10.146Z,101346.13
2022-12-17T21:01:40.830Z,101343.34
2022-12-17T21:04:12.803Z,101340.59
2022-12-17T21:06:49.075Z,101347.22
2022-12-17T21:09:23.572Z,101344.47
2022-12-17T21:11:52.539Z,101343.34
2022-12-17T21:14:23.828Z,101345.66
2022-12-17T21:16:53.386Z,101343.03
2022-12-17T21:19:22.868Z,101348.88
2022-12-17T21:21:51.766Z,101348.78
2022-12-17T21:24:19.838Z,101354.06
2022-12-17T21:26:48.819Z,101350.00
2022-12-17T21:29:18.257Z,101354.84
2022-12-17T21:31:51.626Z,101356.63
2022-12-17T21:34:25.443Z,101353.53
2022-12-17T21:36:54.177Z,101361.34
2022-12-17T21:39:22.474Z,101354.06
2022-12-17T21:42:10.103Z,101363.66
2022-12-17T21:44:38.852Z,101361.22
2022-12-17T21:47:07.907Z,101358.22
2022-12-17T21:49:36.302Z,101363.72
2022-12-17T21:52:03.787Z,101361.75
2022-12-17T21:54:31.030Z,101363.06
2022-12-17T21:56:58.180Z,101362.69
2022-12-17T21:59:25.388Z,101366.66
2022-12-17T22:01:54.576Z,101369.63
2022-12-17T22:04:21.920Z,101371.63
2022-12-17T22:07:02.232Z,101368.47
2022-12-17T22:09:46.733Z,101367.50
2022-12-17T22:12:41.465Z,101366.25
2022-12-17T22:15:12.200Z,101370.97
2022-12-17T22:17:41.090Z,101373.41
2022-12-17T22:20:09.226Z,101374.69
2022-12-17T22:22:36.707Z,101377.13
2022-12-17T22:25:08.275Z,101392.09
2022-12-17T22:27:36.541Z,101393.38
2022-12-17T22:30:23.076Z,101389.97
2022-12-17T22:33:06.868Z,101391.50
2022-12-17T22:38:07.578Z,101391.16
2022-12-17T22:41:13.535Z,101406.00
2022-12-17T22:44:33.955Z,101402.34
2022-12-17T22:44:44.419Z,101391.72
2022-12-17T22:47:10.402Z,101406.72
2022-12-17T22:49:39.795Z,101402.25
2022-12-17T22:52:06.884Z,101412.19
2022-12-17T22:54:34.420Z,101407.22
2022-12-17T22:57:35.812Z,101412.91
2022-12-17T22:59:48.746Z,101424.22
2022-12-17T23:02:15.899Z,101427.94
2022-12-17T23:04:43.284Z,101426.06
2022-12-17T23:07:10.345Z,101430.75
2022-12-17T23:09:37.427Z,101438.97
2022-12-17T23:12:24.529Z,101438.50
2022-12-17T23:14:51.508Z,101439.66
2022-12-17T23:17:18.457Z,101444.59
2022-12-17T23:19:45.506Z,101435.34
2022-12-17T23:22:15.212Z,101446.38
2022-12-17T23:24:44.546Z,101452.31
2022-12-17T23:27:11.668Z,101458.28
2022-12-17T23:29:38.754Z,101455.63
2022-12-17T23:32:06.186Z,101460.69
2022-12-17T23:34:33.122Z,101456.63
2022-12-17T23:37:00.129Z,101452.69
2022-12-17T23:39:27.161Z,101454.06
2022-12-17T23:41:54.653Z,101453.78
2022-12-17T23:44:21.566Z,101460.38
2022-12-17T23:46:49.434Z,101465.44
2022-12-17T23:49:16.372Z,101471.22
2022-12-17T23:51:43.505Z,101472.84
2022-12-17T23:54:10.763Z,101475.34
2022-12-17T23:56:38.436Z,101470.22
2022-12-17T23:59:07.131Z,101474.25
